Time;durP1;ratioP1;P1;durP2;ratioP2;P2;SDS_P1;SDS_P2;PMS_P1;PMS_P2;Temp;Humidity;BMP_temperature;BMP_pressure;BME280_temperature;BME280_humidity;BME280_pressure;Samples;Min_cycle;Max_cycle;Signal;HPM_P1;HPM_P2
2022/06/15 00:02:16;;;;;;;4.67;3.67;;;12.20;99.90;;;;;;5054344;28;20179;-75
2022/06/15 00:04:42;;;;;;;5.33;4.00;;;12.10;99.90;;;;;;5054002;28;20186;-70
2022/06/15 00:07:08;;;;;;;4.50;3.97;;;12.10;99.90;;;;;;5033575;28;20242;-71
2022/06/15 00:09:33;;;;;;;3.90;3.60;;;12.10;99.90;;;;;;5038106;28;20203;-74
2022/06/15 00:11:59;;;;;;;5.37;4.50;;;12.00;99.90;;;;;;5053897;28;20199;-71
2022/06/15 00:14:27;;;;;;;4.43;3.17;;;12.00;99.90;;;;;;5054018;28;20574;-75
2022/06/15 00:16:53;;;;;;;4.33;3.90;;;12.00;99.90;;;;;;5054254;28;20171;-75
2022/06/15 00:19:19;;;;;;;3.60;3.33;;;12.00;99.90;;;;;;5054630;28;20429;-73
2022/06/15 00:21:45;;;;;;;3.17;2.87;;;12.00;99.90;;;;;;5037337;28;20404;-70
2022/06/15 00:24:11;;;;;;;4.10;3.70;;;11.90;99.90;;;;;;5035844;28;20388;-71
2022/06/15 00:26:38;;;;;;;3.73;3.13;;;11.90;99.90;;;;;;5053647;28;20222;-71
2022/06/15 00:29:05;;;;;;;3.67;3.47;;;11.90;99.90;;;;;;5054686;28;20426;-70
2022/06/15 00:31:31;;;;;;;3.73;3.47;;;11.90;99.90;;;;;;5053641;28;20423;-70
2022/06/15 00:33:56;;;;;;;3.40;3.10;;;11.80;99.90;;;;;;5054488;28;20442;-74
2022/06/15 00:36:23;;;;;;;5.90;3.70;;;11.80;99.90;;;;;;5054615;28;20793;-70
2022/06/15 00:38:54;;;;;;;3.30;3.00;;;11.80;99.90;;;;;;5054214;28;20199;-70
2022/06/15 00:41:28;;;;;;;4.73;3.37;;;11.70;99.90;;;;;;5053709;28;20372;-75
2022/06/15 00:43:57;;;;;;;3.60;3.30;;;11.70;99.90;;;;;;5053294;28;20951;-74
2022/06/15 00:46:39;;;;;;;5.67;3.30;;;11.60;99.90;;;;;;5036796;28;20510;-71
2022/06/15 00:49:13;;;;;;;3.70;3.40;;;11.60;99.90;;;;;;5054196;28;20847;-70
2022/06/15 00:51:40;;;;;;;4.70;3.53;;;11.60;99.90;;;;;;5053236;28;20438;-71
2022/06/15 00:54:07;;;;;;;3.77;3.43;;;11.50;99.90;;;;;;5053542;28;20417;-75
2022/06/15 00:56:34;;;;;;;4.83;4.40;;;11.50;99.90;;;;;;5053434;28;20398;-74
2022/06/15 00:59:09;;;;;;;4.80;4.43;;;11.50;99.90;;;;;;5053494;28;20544;-70
2022/06/15 01:01:34;;;;;;;4.40;3.20;;;11.50;99.90;;;;;;5053099;28;20401;-72
2022/06/15 01:04:03;;;;;;;3.33;3.10;;;11.50;99.90;;;;;;5053551;28;20419;-71
2022/06/15 01:06:48;;;;;;;2.93;2.73;;;11.50;99.90;;;;;;5053410;28;20172;-73
2022/06/15 01:09:26;;;;;;;4.10;3.70;;;11.40;99.90;;;;;;5053782;28;20419;-71
2022/06/15 01:12:13;;;;;;;8.60;3.70;;;11.40;99.90;;;;;;5052947;28;20445;-74
2022/06/15 01:14:51;;;;;;;4.10;3.80;;;11.40;99.90;;;;;;5053792;28;20948;-70
2022/06/15 01:18:02;;;;;;;5.37;4.20;;;11.40;99.90;;;;;;5034663;28;20384;-74
2022/06/15 01:21:03;;;;;;;3.70;3.40;;;11.40;99.90;;;;;;5030018;28;20422;-75
2022/06/15 01:23:47;;;;;;;7.83;4.03;;;11.40;99.90;;;;;;5042928;28;20407;-70
2022/06/15 01:26:58;;;;;;;3.37;3.07;;;11.40;99.90;;;;;;5035754;28;20410;-74
2022/06/15 01:29:47;;;;;;;3.90;3.60;;;11.40;99.90;;;;;;5053408;28;20453;-75
2022/06/15 01:33:02;;;;;;;3.80;3.47;;;11.40;99.90;;;;;;5052373;28;20445;-71
2022/06/15 01:35:36;;;;;;;4.90;3.63;;;11.30;99.90;;;;;;5032942;28;20468;-73
2022/06/15 01:38:25;;;;;;;4.90;4.03;;;11.30;99.90;;;;;;5038116;28;20428;-70
2022/06/15 01:41:24;;;;;;;3.97;3.47;;;11.20;99.90;;;;;;5053532;28;20405;-75
2022/06/15 01:44:00;;;;;;;3.60;3.30;;;11.20;99.90;;;;;;5052322;28;20425;-71
2022/06/15 01:46:27;;;;;;;4.60;4.20;;;11.20;99.90;;;;;;5053190;28;20380;-70
2022/06/15 01:48:55;;;;;;;4.43;4.13;;;11.30;99.90;;;;;;5052605;28;20987;-70
2022/06/15 01:51:27;;;;;;;5.37;4.03;;;11.20;99.90;;;;;;5053325;28;20415;-70
2022/06/15 01:54:06;;;;;;;4.20;3.90;;;11.20;99.90;;;;;;5051245;28;20392;-74
2022/06/15 01:56:39;;;;;;;5.53;4.03;;;11.20;99.90;;;;;;5052369;28;20384;-74
2022/06/15 01:59:38;;;;;;;4.33;3.93;;;11.20;99.90;;;;;;5052900;28;20529;-75
2022/06/15 02:02:04;;;;;;;3.70;3.50;;;11.20;99.90;;;;;;5041007;28;20413;-74
2022/06/15 02:04:44;;;;;;;5.50;4.23;;;11.20;99.90;;;;;;5052024;28;20432;-70
2022/06/15 02:07:39;;;;;;;9.90;4.03;;;11.20;99.90;;;;;;5051568;28;20170;-70
2022/06/15 02:10:17;;;;;;;6.30;4.50;;;11.20;99.90;;;;;;5052666;28;20532;-71
2022/06/15 02:13:25;;;;;;;6.63;4.10;;;11.20;99.90;;;;;;5051033;28;20472;-75
2022/06/15 02:16:00;;;;;;;5.60;4.10;;;11.20;99.90;;;;;;5032510;28;20388;-73
2022/06/15 02:18:28;;;;;;;6.70;4.73;;;11.10;99.90;;;;;;5035994;28;20443;-75
2022/06/15 02:20:59;;;;;;;3.70;3.40;;;11.10;99.90;;;;;;5052900;28;20752;-70
2022/06/15 02:23:26;;;;;;;6.17;4.67;;;11.00;99.90;;;;;;5051448;28;20922;-70
2022/06/15 02:25:53;;;;;;;8.80;4.90;;;11.00;99.90;;;;;;5052819;28;20410;-71
2022/06/15 02:28:25;;;;;;;5.17;3.90;;;11.00;99.90;;;;;;5051891;28;20815;-74
2022/06/15 02:30:51;;;;;;;5.60;4.40;;;11.00;99.90;;;;;;5052555;28;20753;-70
2022/06/15 02:33:27;;;;;;;4.10;3.80;;;11.00;99.90;;;;;;5050639;28;20461;-74
2022/06/15 02:35:54;;;;;;;7.00;4.70;;;11.00;99.90;;;;;;5052555;28;20241;-73
2022/06/15 02:38:20;;;;;;;9.83;5.77;;;10.90;99.90;;;;;;5051640;28;20396;-70
2022/06/15 02:40:46;;;;;;;4.97;4.30;;;10.90;99.90;;;;;;5034844;28;20409;-72
2022/06/15 02:43:14;;;;;;;5.13;4.73;;;10.90;99.90;;;;;;5051407;28;20919;-75
2022/06/15 02:45:41;;;;;;;6.77;4.50;;;10.90;99.90;;;;;;5052806;28;20463;-75
2022/06/15 02:48:09;;;;;;;6.50;4.50;;;10.90;99.90;;;;;;5051300;28;20448;-76
2022/06/15 02:50:42;;;;;;;5.23;4.73;;;10.90;99.90;;;;;;5052559;28;20488;-70
2022/06/15 02:53:11;;;;;;;5.50;4.40;;;10.90;99.90;;;;;;5049904;28;20461;-72
2022/06/15 02:55:38;;;;;;;6.53;5.03;;;10.90;99.90;;;;;;5052675;28;20421;-70
2022/06/15 02:58:09;;;;;;;6.17;5.27;;;10.90;99.90;;;;;;5033756;28;21019;-71
2022/06/15 03:00:36;;;;;;;5.73;5.23;;;10.80;99.90;;;;;;5034887;28;20413;-71
2022/06/15 03:03:03;;;;;;;6.97;4.80;;;10.90;99.90;;;;;;5033602;28;21011;-70
2022/06/15 03:05:28;;;;;;;13.83;6.73;;;10.90;99.90;;;;;;5052505;28;20402;-76
2022/06/15 03:07:54;;;;;;;7.13;6.00;;;10.90;1.00;;;;;;5051156;28;20428;-71
2022/06/15 03:10:20;;;;;;;7.83;6.17;;;10.90;1.00;;;;;;5052533;28;20167;-75
2022/06/15 03:12:46;;;;;;;5.97;5.43;;;10.90;1.00;;;;;;5049175;28;20424;-71
2022/06/15 03:15:12;;;;;;;7.57;5.60;;;11.00;1.00;;;;;;5052556;28;20209;-74
2022/06/15 03:17:37;;;;;;;7.07;5.93;;;11.00;1.00;;;;;;5053220;28;20262;-70
2022/06/15 03:20:03;;;;;;;6.30;5.27;;;11.10;1.00;;;;;;5056154;28;20508;-70
2022/06/15 03:22:31;;;;;;;6.80;5.63;;;11.10;1.00;;;;;;5036972;28;20578;-71
2022/06/15 03:24:57;;;;;;;6.73;5.87;;;11.10;1.00;;;;;;5036091;28;20385;-70
2022/06/15 03:27:22;;;;;;;6.77;6.17;;;11.00;1.00;;;;;;5046666;28;20453;-74
2022/06/15 03:29:50;;;;;;;12.83;6.50;;;11.10;1.00;;;;;;5055205;28;20187;-70
2022/06/15 03:32:16;;;;;;;6.07;5.47;;;11.10;1.00;;;;;;5054370;28;20199;-76
2022/06/15 03:34:42;;;;;;;7.77;6.40;;;11.10;1.00;;;;;;5055846;28;20382;-71
2022/06/15 03:37:09;;;;;;;9.97;7.90;;;11.10;1.00;;;;;;5054790;28;20396;-70
2022/06/15 03:39:36;;;;;;;10.60;7.07;;;11.10;1.00;;;;;;5055749;28;20425;-74
2022/06/15 03:42:14;;;;;;;8.77;6.77;;;11.10;1.00;;;;;;5045188;28;20401;-73
2022/06/15 03:44:41;;;;;;;8.10;7.30;;;11.20;1.00;;;;;;5018335;28;20912;-74
2022/06/15 03:47:13;;;;;;;9.00;7.70;;;11.20;1.00;;;;;;5051184;28;20388;-74
2022/06/15 03:49:38;;;;;;;8.53;6.80;;;11.30;1.00;;;;;;5055212;28;20416;-77
2022/06/15 03:52:05;;;;;;;11.33;7.20;;;11.30;1.00;;;;;;5036716;28;20453;-72
2022/06/15 03:54:31;;;;;;;11.77;6.17;;;11.30;1.00;;;;;;5055300;28;20167;-70
2022/06/15 03:56:57;;;;;;;8.50;7.00;;;11.40;1.00;;;;;;5039831;28;20396;-75
2022/06/15 03:59:23;;;;;;;11.23;8.30;;;11.40;1.00;;;;;;5035397;28;20240;-75
2022/06/15 04:01:49;;;;;;;11.27;7.57;;;11.50;1.00;;;;;;5051945;28;20179;-75
2022/06/15 04:04:14;;;;;;;12.77;6.83;;;11.50;1.00;;;;;;5054428;28;20429;-75
2022/06/15 04:06:41;;;;;;;12.13;6.40;;;11.50;1.00;;;;;;5053320;28;20400;-74
2022/06/15 04:09:06;;;;;;;9.80;6.47;;;11.60;1.00;;;;;;5055002;28;20183;-70
2022/06/15 04:14:16;;;;;;;10.33;6.90;;;11.70;1.00;;;;;;5054124;28;20221;-70
2022/06/15 04:16:42;;;;;;;7.63;6.80;;;11.70;1.00;;;;;;5054049;28;20421;-70
2022/06/15 04:19:08;;;;;;;8.97;8.07;;;11.70;1.00;;;;;;5037125;28;20198;-74
2022/06/15 04:21:34;;;;;;;10.27;6.80;;;11.70;1.00;;;;;;5054579;28;20421;-74
2022/06/15 04:24:00;;;;;;;9.90;6.77;;;11.80;1.00;;;;;;5053873;28;20483;-75
2022/06/15 04:26:27;;;;;;;10.67;7.17;;;11.80;1.00;;;;;;5053736;28;20508;-74
2022/06/15 04:28:52;;;;;;;8.23;7.20;;;11.80;1.00;;;;;;5053434;28;20388;-70
2022/06/15 04:31:18;;;;;;;10.70;7.20;;;11.80;1.00;;;;;;5036429;28;20453;-74
2022/06/15 04:33:44;;;;;;;8.47;7.30;;;11.90;1.00;;;;;;5053634;28;20175;-74
2022/06/15 04:36:13;;;;;;;11.23;8.00;;;12.00;1.00;;;;;;5036682;28;20567;-72
2022/06/15 04:38:39;;;;;;;8.03;6.80;;;12.00;1.00;;;;;;5053863;28;20669;-68
2022/06/15 04:41:04;;;;;;;9.00;6.20;;;12.10;1.00;;;;;;5054473;28;20396;-75
2022/06/15 04:43:30;;;;;;;8.53;6.30;;;12.20;1.00;;;;;;5035149;28;20516;-74
2022/06/15 04:45:56;;;;;;;7.47;6.73;;;12.20;1.00;;;;;;5036425;28;20171;-74
2022/06/15 04:48:22;;;;;;;6.27;5.60;;;12.30;1.00;;;;;;5053585;28;20202;-70
2022/06/15 04:50:48;;;;;;;9.27;6.80;;;12.30;1.00;;;;;;5040038;28;20536;-74
2022/06/15 04:53:13;;;;;;;7.70;6.87;;;12.50;1.00;;;;;;5023251;28;20435;-70
2022/06/15 04:55:39;;;;;;;8.07;6.50;;;12.60;1.00;;;;;;5054093;28;20574;-70
2022/06/15 04:58:05;;;;;;;17.40;6.60;;;12.60;1.00;;;;;;5053272;28;20167;-72
2022/06/15 05:00:36;;;;;;;6.73;6.03;;;12.70;1.00;;;;;;5054091;28;20163;-71
2022/06/15 05:03:02;;;;;;;11.33;8.27;;;12.70;1.00;;;;;;5052263;28;20436;-70
2022/06/15 05:05:28;;;;;;;10.50;7.03;;;12.80;1.00;;;;;;5040429;28;20754;-71
2022/06/15 05:07:53;;;;;;;8.13;7.17;;;12.80;1.00;;;;;;5045160;28;20675;-70
2022/06/15 05:10:22;;;;;;;10.00;6.83;;;12.90;1.00;;;;;;5054088;28;20536;-72
2022/06/15 05:12:48;;;;;;;7.73;7.03;;;13.00;1.00;;;;;;5052982;28;20256;-71
2022/06/15 05:15:15;;;;;;;14.47;7.50;;;13.00;1.00;;;;;;5052835;28;20404;-72
2022/06/15 05:17:42;;;;;;;9.67;6.80;;;13.10;1.00;;;;;;5052684;28;20413;-67
2022/06/15 05:20:14;;;;;;;10.47;7.43;;;13.10;1.00;;;;;;5052673;28;20528;-68
2022/06/15 05:22:39;;;;;;;15.93;6.53;;;13.20;1.00;;;;;;5047706;28;20391;-68
2022/06/15 05:25:08;;;;;;;10.40;7.30;;;13.30;1.00;;;;;;5052059;28;20400;-72
2022/06/15 05:27:35;;;;;;;9.83;7.07;;;13.30;1.00;;;;;;5052415;28;20186;-71
2022/06/15 05:30:01;;;;;;;9.30;6.77;;;13.30;1.00;;;;;;5052803;28;20396;-70
2022/06/15 05:32:27;;;;;;;8.93;7.60;;;13.30;1.00;;;;;;5042499;28;20460;-72
2022/06/15 05:34:55;;;;;;;6.47;5.77;;;13.30;1.00;;;;;;5053487;28;20515;-72
2022/06/15 05:37:21;;;;;;;9.13;6.20;;;13.40;1.00;;;;;;5051607;28;20449;-68
2022/06/15 05:39:48;;;;;;;11.77;6.47;;;13.40;1.00;;;;;;5053311;28;20453;-67
2022/06/15 05:42:14;;;;;;;7.57;6.47;;;13.40;1.00;;;;;;5052204;28;20448;-72
2022/06/15 05:47:06;;;;;;;8.80;6.50;;;13.60;1.00;;;;;;5052270;28;20407;-67
2022/06/15 05:49:34;;;;;;;6.87;5.97;;;13.70;1.00;;;;;;5053213;28;20836;-72
2022/06/15 05:52:01;;;;;;;7.43;5.93;;;13.80;1.00;;;;;;5052863;28;20797;-67
2022/06/15 05:54:27;;;;;;;6.30;5.67;;;13.80;1.00;;;;;;5052207;28;20410;-72
2022/06/15 05:56:52;;;;;;;7.23;5.00;;;13.90;1.00;;;;;;5052126;28;20368;-68
2022/06/15 05:59:18;;;;;;;8.10;6.27;;;13.90;1.00;;;;;;5052218;28;20848;-72
2022/06/15 06:01:44;;;;;;;8.43;5.40;;;14.00;1.00;;;;;;5052942;28;20179;-72
2022/06/15 06:04:18;;;;;;;8.20;5.17;;;14.00;1.00;;;;;;5051017;28;20923;-68
2022/06/15 06:06:44;;;;;;;5.30;4.80;;;14.10;1.00;;;;;;5052190;28;20244;-67
2022/06/15 06:09:10;;;;;;;5.17;4.60;;;14.20;1.00;;;;;;5053118;28;20448;-72
2022/06/15 06:11:36;;;;;;;5.30;4.50;;;14.30;1.00;;;;;;5052990;28;20201;-67
2022/06/15 06:14:02;;;;;;;6.93;4.40;;;14.30;1.00;;;;;;5050812;28;20421;-67
2022/06/15 06:16:28;;;;;;;7.20;4.60;;;14.40;1.00;;;;;;5051401;28;20477;-71
2022/06/15 06:18:54;;;;;;;11.20;4.63;;;14.40;1.00;;;;;;5052915;28;21269;-72
2022/06/15 06:21:20;;;;;;;6.10;4.60;;;14.50;1.00;;;;;;5052756;28;20163;-73
2022/06/15 06:23:46;;;;;;;5.30;3.40;;;14.60;1.00;;;;;;5051867;28;20233;-68
2022/06/15 06:26:31;;;;;;;5.23;3.90;;;14.70;1.00;;;;;;5052666;28;20532;-69
2022/06/15 06:28:58;;;;;;;4.23;3.93;;;14.80;1.00;;;;;;5052776;28;20440;-67
2022/06/15 06:31:25;;;;;;;3.77;3.47;;;14.80;1.00;;;;;;5052662;28;20402;-69
2022/06/15 06:33:51;;;;;;;3.40;3.10;;;14.90;1.00;;;;;;5033495;28;20937;-72
2022/06/15 06:36:27;;;;;;;7.03;4.00;;;15.00;1.00;;;;;;5052507;28;20924;-71
2022/06/15 06:38:53;;;;;;;4.97;3.37;;;15.00;1.00;;;;;;5052409;28;20432;-72
2022/06/15 06:41:24;;;;;;;12.47;4.07;;;15.10;1.00;;;;;;5052823;28;20401;-71
2022/06/15 06:43:50;;;;;;;3.53;3.23;;;15.20;1.00;;;;;;5051787;28;20171;-68
2022/06/15 06:46:17;;;;;;;3.10;2.80;;;15.30;1.00;;;;;;5052489;28;20440;-69
2022/06/15 06:48:43;;;;;;;3.50;3.30;;;15.30;99.90;;;;;;5051928;28;20491;-67
2022/06/15 06:51:08;;;;;;;3.10;2.87;;;15.40;99.90;;;;;;5052102;28;20910;-68
2022/06/15 06:53:35;;;;;;;7.03;2.83;;;15.40;99.90;;;;;;5055021;28;20441;-71
2022/06/15 06:56:04;;;;;;;4.90;3.10;;;15.50;99.90;;;;;;5056678;28;20569;-68
2022/06/15 06:58:30;;;;;;;3.97;2.60;;;15.60;99.90;;;;;;5055588;28;20433;-71
2022/06/15 07:00:56;;;;;;;3.53;3.23;;;15.70;99.90;;;;;;5056534;28;20412;-67
2022/06/15 07:03:23;;;;;;;3.20;2.70;;;15.70;99.90;;;;;;5055540;28;20193;-67
2022/06/15 07:05:49;;;;;;;5.83;2.53;;;15.70;99.90;;;;;;5056483;28;20480;-72
2022/06/15 07:08:15;;;;;;;3.50;2.90;;;15.80;99.90;;;;;;5037312;28;20430;-70
2022/06/15 07:10:41;;;;;;;4.57;3.20;;;15.80;99.90;;;;;;5055530;28;20806;-67
2022/06/15 07:13:07;;;;;;;2.60;2.40;;;15.90;99.90;;;;;;5055237;28;20540;-72
2022/06/15 07:15:33;;;;;;;2.50;2.30;;;15.90;99.90;;;;;;5056262;28;20856;-71
2022/06/15 07:18:00;;;;;;;2.40;2.20;;;16.00;99.90;;;;;;5055208;28;20399;-68
2022/06/15 07:20:26;;;;;;;3.33;2.60;;;16.10;99.90;;;;;;5056251;28;20167;-71
2022/06/15 07:22:52;;;;;;;2.90;2.17;;;16.10;99.90;;;;;;5056062;28;20941;-71
2022/06/15 07:25:18;;;;;;;2.93;2.73;;;16.30;99.90;;;;;;5054942;28;20457;-71
2022/06/15 07:27:44;;;;;;;3.90;2.73;;;16.40;99.90;;;;;;5054441;28;20198;-68
2022/06/15 07:30:14;;;;;;;4.67;2.90;;;16.40;99.90;;;;;;5055623;28;20928;-67
2022/06/15 07:32:42;;;;;;;2.40;2.20;;;16.50;99.90;;;;;;5055797;28;20209;-71
2022/06/15 07:35:30;;;;;;;2.50;2.30;;;16.60;99.90;;;;;;5054799;28;20437;-70
2022/06/15 07:37:56;;;;;;;4.63;4.23;;;16.60;99.90;;;;;;5054881;28;20390;-69
2022/06/15 07:40:23;;;;;;;3.63;2.90;;;16.60;99.90;;;;;;5055970;28;20483;-67
2022/06/15 07:42:50;;;;;;;5.70;2.47;;;16.60;99.90;;;;;;5055643;28;20167;-71
2022/06/15 07:45:18;;;;;;;3.83;2.93;;;16.70;99.90;;;;;;5053713;28;21019;-67
2022/06/15 07:50:28;;;;;;;5.20;3.27;;;16.80;99.90;;;;;;5055759;28;20801;-71
2022/06/15 07:52:55;;;;;;;2.73;2.50;;;16.90;99.90;;;;;;5055408;28;20456;-71
2022/06/15 07:55:27;;;;;;;2.63;2.43;;;17.00;99.90;;;;;;5054617;28;20837;-71
2022/06/15 07:57:53;;;;;;;2.67;2.43;;;17.10;99.90;;;;;;5054553;28;20397;-67
2022/06/15 08:00:20;;;;;;;3.27;2.53;;;17.10;99.90;;;;;;5054231;28;20444;-71
2022/06/15 08:02:47;;;;;;;2.87;2.67;;;17.10;99.90;;;;;;5054903;28;20686;-68
2022/06/15 08:05:13;;;;;;;6.63;2.63;;;17.10;99.90;;;;;;5052576;28;20499;-71
2022/06/15 08:07:39;;;;;;;4.20;2.60;;;17.10;99.90;;;;;;5054424;28;20814;-71
2022/06/15 08:10:06;;;;;;;3.03;2.40;;;17.20;97.70;;;;;;5055149;28;20190;-67
2022/06/15 08:12:32;;;;;;;6.90;2.57;;;17.40;96.30;;;;;;5055136;28;20469;-69
2022/06/15 08:15:01;;;;;;;3.10;2.80;;;17.50;94.80;;;;;;5054022;28;20483;-71
2022/06/15 08:17:35;;;;;;;3.33;2.83;;;17.60;94.80;;;;;;5054403;28;20960;-71
2022/06/15 08:20:15;;;;;;;2.50;2.30;;;17.70;94.80;;;;;;5054866;28;20418;-67
2022/06/15 08:22:44;;;;;;;2.77;2.57;;;17.90;94.90;;;;;;5054594;28;20409;-67
2022/06/15 08:25:13;;;;;;;3.13;2.20;;;18.00;88.70;;;;;;5053803;28;20872;-67
2022/06/15 08:27:39;;;;;;;2.70;2.50;;;18.00;87.10;;;;;;5054077;28;20476;-72
2022/06/15 08:30:08;;;;;;;2.30;2.10;;;18.00;86.20;;;;;;5054782;28;20839;-67
2022/06/15 08:32:34;;;;;;;4.30;2.50;;;18.00;78.00;;;;;;5054755;28;20457;-69
2022/06/15 08:35:01;;;;;;;4.07;2.40;;;18.10;79.10;;;;;;5052999;28;20949;-70
2022/06/15 08:37:26;;;;;;;7.37;2.30;;;18.10;76.30;;;;;;5051798;28;20439;-67
2022/06/15 08:39:54;;;;;;;5.43;2.60;;;18.30;69.80;;;;;;5053932;28;20496;-67
2022/06/15 08:42:50;;;;;;;2.53;2.43;;;18.60;76.40;;;;;;5036840;28;20174;-67
2022/06/15 08:45:31;;;;;;;3.47;2.27;;;18.80;82.30;;;;;;5054486;28;20421;-67
2022/06/15 08:48:13;;;;;;;7.10;2.63;;;18.80;79.20;;;;;;5051969;28;20447;-67
2022/06/15 08:51:04;;;;;;;2.80;2.60;;;18.60;66.20;;;;;;5054395;28;20920;-71
2022/06/15 08:54:06;;;;;;;5.37;4.83;;;18.50;64.10;;;;;;5054161;28;20459;-67
2022/06/15 08:56:46;;;;;;;4.70;2.20;;;18.60;68.60;;;;;;5049941;28;20428;-67
2022/06/15 08:59:21;;;;;;;4.50;2.87;;;18.80;66.30;;;;;;5053637;28;20956;-71
2022/06/15 09:02:31;;;;;;;3.07;2.77;;;18.90;64.30;;;;;;5054263;28;20405;-71
2022/06/15 09:05:04;;;;;;;3.60;2.83;;;18.90;57.00;;;;;;5016744;28;20425;-67
2022/06/15 09:07:42;;;;;;;2.77;2.57;;;18.80;62.70;;;;;;5051259;28;20429;-71
2022/06/15 09:10:23;;;;;;;3.77;2.70;;;18.80;66.10;;;;;;5054102;28;20983;-71
2022/06/15 09:13:10;;;;;;;3.03;2.83;;;18.50;56.10;;;;;;5054044;28;20449;-67
2022/06/15 09:16:00;;;;;;;2.73;2.53;;;18.40;62.60;;;;;;5053005;28;20805;-67
2022/06/15 09:18:35;;;;;;;3.90;2.80;;;18.50;57.30;;;;;;5052875;28;20414;-70
2022/06/15 09:21:10;;;;;;;2.83;2.60;;;18.70;60.90;;;;;;5053971;28;20755;-67
2022/06/15 09:23:47;;;;;;;6.13;3.10;;;19.00;63.00;;;;;;5053090;28;20404;-72
2022/06/15 09:26:26;;;;;;;6.10;2.77;;;19.40;67.50;;;;;;5034539;28;20425;-67
2022/06/15 09:29:08;;;;;;;2.57;2.37;;;19.90;66.50;;;;;;5053201;28;20475;-67
2022/06/15 09:31:46;;;;;;;2.73;2.20;;;20.40;57.10;;;;;;5053572;28;20401;-71
2022/06/15 09:34:19;;;;;;;3.07;2.77;;;20.00;40.40;;;;;;5053133;28;20480;-65
2022/06/15 09:36:50;;;;;;;3.00;2.70;;;20.00;40.70;;;;;;5051231;28;20421;-71
2022/06/15 09:39:17;;;;;;;1.97;1.87;;;19.90;44.80;;;;;;5053588;28;20413;-68
2022/06/15 09:41:50;;;;;;;2.83;2.60;;;19.60;42.00;;;;;;5053533;28;20405;-71
2022/06/15 09:44:44;;;;;;;4.50;2.40;;;19.40;52.00;;;;;;5053511;28;20432;-67
2022/06/15 09:47:38;;;;;;;2.90;2.70;;;19.30;41.70;;;;;;5051524;28;20433;-72
2022/06/15 09:50:22;;;;;;;2.40;2.20;;;19.40;61.90;;;;;;5052440;28;20461;-67
2022/06/15 09:53:32;;;;;;;3.60;2.53;;;20.00;62.30;;;;;;5053124;28;20472;-71
2022/06/15 09:56:06;;;;;;;3.20;2.57;;;20.70;56.10;;;;;;5051364;28;20503;-67
2022/06/15 09:58:39;;;;;;;7.07;2.50;;;20.60;47.50;;;;;;5052356;28;20829;-68
2022/06/15 10:01:07;;;;;;;2.70;2.50;;;20.50;46.00;;;;;;5035415;28;20409;-72
2022/06/15 10:03:38;;;;;;;3.03;2.23;;;20.40;44.20;;;;;;5052592;28;20649;-71
2022/06/15 10:06:21;;;;;;;2.23;2.03;;;20.20;41.90;;;;;;5051433;28;20434;-67
2022/06/15 10:08:48;;;;;;;4.03;2.53;;;21.00;46.70;;;;;;5051957;28;20929;-68
2022/06/15 10:11:27;;;;;;;2.70;2.50;;;21.30;27.60;;;;;;5052999;28;20398;-71
2022/06/15 10:13:53;;;;;;;2.63;2.43;;;21.00;19.10;;;;;;5052013;28;20401;-71
2022/06/15 10:16:30;;;;;;;3.47;2.97;;;20.80;18.80;;;;;;5051103;28;20563;-67
2022/06/15 10:19:08;;;;;;;9.80;2.80;;;20.60;17.60;;;;;;5052386;28;20670;-71
2022/06/15 10:21:36;;;;;;;3.00;2.20;;;20.30;15.70;;;;;;5052955;28;20893;-67
2022/06/15 10:24:14;;;;;;;2.33;2.13;;;20.40;24.30;;;;;;5052827;28;20396;-71
2022/06/15 10:27:21;;;;;;;2.80;2.23;;;20.30;26.50;;;;;;5050175;28;20417;-67
2022/06/15 10:30:20;;;;;;;2.87;2.60;;;20.20;29.70;;;;;;5029931;28;20437;-71
2022/06/15 10:33:02;;;;;;;3.40;2.63;;;20.20;26.30;;;;;;5051999;28;20558;-67
2022/06/15 10:35:35;;;;;;;3.17;2.50;;;20.20;26.20;;;;;;5052710;28;20417;-68
2022/06/15 10:38:08;;;;;;;2.70;2.50;;;20.20;25.40;;;;;;5051781;28;20440;-67
2022/06/15 10:40:39;;;;;;;2.83;2.20;;;20.50;24.10;;;;;;5034869;28;20830;-69
2022/06/15 10:43:23;;;;;;;3.90;2.47;;;21.50;38.50;;;;;;5052938;28;20401;-66
2022/06/15 10:45:58;;;;;;;3.80;2.43;;;21.70;19.60;;;;;;5051808;28;20475;-72
2022/06/15 10:48:46;;;;;;;2.13;1.93;;;21.50;12.30;;;;;;5050246;28;20460;-71
2022/06/15 10:51:28;;;;;;;4.10;2.50;;;21.30;16.20;;;;;;5045603;28;20973;-70
2022/06/15 10:54:17;;;;;;;2.80;2.60;;;21.50;9.50;;;;;;5052768;28;20536;-67
2022/06/15 11:02:39;;;;;;;11.40;2.40;;;21.10;1.00;;;;;;5039111;28;20560;-67
2022/06/15 11:05:15;;;;;;;2.13;1.93;;;20.90;3.50;;;;;;5051672;28;20459;-67
2022/06/15 11:07:57;;;;;;;4.50;2.30;;;20.70;1.00;;;;;;5050731;28;20829;-66
2022/06/15 11:10:34;;;;;;;4.47;2.60;;;20.50;1.00;;;;;;5051908;28;20400;-72
2022/06/15 11:13:35;;;;;;;2.70;2.50;;;20.30;7.10;;;;;;5049857;28;20863;-68
2022/06/15 11:19:06;;;;;;;2.63;2.20;;;20.40;6.80;;;;;;5052422;28;20420;-72
2022/06/15 11:21:40;;;;;;;4.40;2.27;;;20.60;8.30;;;;;;5051340;28;20421;-67
2022/06/15 11:24:15;;;;;;;6.90;2.53;;;21.00;8.40;;;;;;5052318;28;20389;-72
2022/06/15 11:26:57;;;;;;;3.60;2.70;;;21.20;3.90;;;;;;5050433;28;20401;-67
2022/06/15 11:29:53;;;;;;;4.00;2.37;;;20.90;1.00;;;;;;5052345;28;20413;-66
2022/06/15 11:32:37;;;;;;;3.77;2.40;;;20.80;3.30;;;;;;5033401;28;20453;-66
2022/06/15 11:35:03;;;;;;;2.93;2.47;;;20.90;5.40;;;;;;5051110;28;20421;-72
2022/06/15 11:37:53;;;;;;;9.93;2.70;;;21.30;13.60;;;;;;5049022;28;20443;-67
2022/06/15 11:40:30;;;;;;;2.77;2.53;;;21.30;8.10;;;;;;5055553;28;20179;-67
2022/06/15 11:42:56;;;;;;;4.70;2.70;;;21.40;6.00;;;;;;5053863;28;20431;-70
2022/06/15 11:45:30;;;;;;;3.50;2.17;;;21.40;6.60;;;;;;5052145;28;20433;-67
2022/06/15 11:48:10;;;;;;;1.97;1.77;;;21.30;1.00;;;;;;5054672;28;20417;-68
2022/06/15 11:51:18;;;;;;;3.80;2.03;;;21.00;1.00;;;;;;5055419;28;20397;-68
2022/06/15 11:53:49;;;;;;;2.63;2.33;;;21.00;1.00;;;;;;5030726;28;20468;-67
2022/06/15 11:56:17;;;;;;;2.50;2.30;;;21.20;7.00;;;;;;5055326;28;20415;-72
2022/06/15 11:58:55;;;;;;;2.90;2.40;;;21.40;2.50;;;;;;5054604;28;20428;-71
2022/06/15 12:01:40;;;;;;;3.03;2.10;;;22.00;1.00;;;;;;5054972;28;20757;-67
2022/06/15 12:04:57;;;;;;;5.33;2.67;;;22.90;6.60;;;;;;5055406;28;20413;-71
2022/06/15 12:07:35;;;;;;;5.20;2.30;;;23.70;1.00;;;;;;5051452;28;20421;-66
2022/06/15 12:10:32;;;;;;;4.70;2.30;;;24.80;6.00;;;;;;5055307;28;20437;-67
2022/06/15 12:13:04;;;;;;;2.53;2.20;;;24.80;1.00;;;;;;5053904;28;20457;-72
2022/06/15 12:15:45;;;;;;;5.60;2.27;;;24.20;1.00;;;;;;5055270;28;21028;-66
2022/06/15 12:18:52;;;;;;;3.70;2.17;;;23.40;1.00;;;;;;5053283;28;20457;-68
2022/06/15 12:22:00;;;;;;;4.07;2.53;;;23.00;1.00;;;;;;5049216;28;20416;-68
2022/06/15 12:24:52;;;;;;;5.17;2.27;;;22.70;1.00;;;;;;5031663;28;20917;-68
2022/06/15 12:27:39;;;;;;;2.73;2.50;;;22.30;1.00;;;;;;5054011;28;20414;-73
2022/06/15 12:30:26;;;;;;;2.67;2.13;;;22.20;1.00;;;;;;5054866;28;20433;-68
2022/06/15 12:33:31;;;;;;;3.43;2.07;;;22.30;1.00;;;;;;5053661;28;20540;-73
2022/06/15 12:36:21;;;;;;;2.20;2.00;;;22.00;1.00;;;;;;5053876;28;20403;-68
2022/06/15 12:39:08;;;;;;;3.47;2.00;;;21.80;1.00;;;;;;5054076;28;20491;-68
2022/06/15 12:44:20;;;;;;;2.20;2.10;;;21.70;1.00;;;;;;5052510;28;20880;-73
2022/06/15 12:46:48;;;;;;;4.30;2.33;;;21.60;2.30;;;;;;5053771;28;20437;-73
2022/06/15 12:49:26;;;;;;;2.10;1.80;;;22.00;1.00;;;;;;5053775;28;20199;-68
2022/06/15 12:52:18;;;;;;;2.63;2.30;;;22.90;6.00;;;;;;5052848;28;20472;-68
2022/06/15 12:55:10;;;;;;;2.30;1.60;;;23.80;1.70;;;;;;5053643;28;20512;-73
2022/06/15 12:57:46;;;;;;;5.80;2.27;;;24.80;6.80;;;;;;5053527;28;20797;-71
2022/06/15 13:00:31;;;;;;;2.53;1.60;;;25.80;1.00;;;;;;5054399;28;20898;-75
2022/06/15 13:03:15;;;;;;;2.40;2.20;;;26.40;1.00;;;;;;5053286;28;20429;-67
2022/06/15 13:05:41;;;;;;;3.30;2.20;;;26.10;1.00;;;;;;5054339;28;20492;-66
2022/06/15 13:08:16;;;;;;;4.60;1.93;;;25.50;1.00;;;;;;5053208;28;20822;-72
2022/06/15 13:10:53;;;;;;;3.10;2.80;;;24.80;1.00;;;;;;5053877;28;20742;-72
2022/06/15 13:13:27;;;;;;;3.63;2.13;;;23.80;1.00;;;;;;5052602;28;20460;-72
2022/06/15 13:15:55;;;;;;;3.30;2.40;;;23.40;1.00;;;;;;5053196;28;20432;-68
2022/06/15 13:18:39;;;;;;;3.10;2.07;;;22.90;1.00;;;;;;5053198;28;20922;-67
2022/06/15 13:21:06;;;;;;;3.00;2.47;;;23.50;1.00;;;;;;5036146;28;20877;-67
2022/06/15 13:23:34;;;;;;;5.53;2.33;;;24.30;1.00;;;;;;5052488;28;20441;-72
2022/06/15 13:26:05;;;;;;;2.20;2.10;;;24.30;1.00;;;;;;5035926;28;20932;-67
2022/06/15 13:28:34;;;;;;;4.07;2.63;;;23.60;1.00;;;;;;5052952;28;20772;-68
2022/06/15 13:31:05;;;;;;;3.20;1.73;;;23.70;1.00;;;;;;5053487;28;20424;-67
2022/06/15 13:33:46;;;;;;;2.33;2.03;;;24.10;1.00;;;;;;5052108;28;20463;-68
2022/06/15 13:36:11;;;;;;;3.23;2.20;;;23.90;1.00;;;;;;5052784;28;20456;-71
2022/06/15 13:38:40;;;;;;;3.40;2.60;;;23.50;1.00;;;;;;5052816;28;20460;-68
2022/06/15 13:41:20;;;;;;;3.90;2.60;;;23.10;1.00;;;;;;5053715;28;20170;-69
2022/06/15 13:43:46;;;;;;;3.60;2.30;;;22.90;1.00;;;;;;5052422;28;20437;-67